AAL3013 -KMIA
Flight info
| Callsign | AAL3013 |
|---|---|
| Flight time | N/A |
| Altitude | 5000 |
| Route | FROGZ5 |
| Aircraft |
Departure
| Time | N/A |
|---|---|
| Airport | - |
Arrival
| Time | 2026-05-08 00:22 |
|---|---|
| Airport | Miami International Airport (KMIA) |
| Time | Latitude | Longitude | Altitude | Speed | Heading |
|---|---|---|---|---|---|
| 2026-05-08 00:09 | 25.95722 | -81.13753 | 9815 ft | 322 kts | 116° |
| 2026-05-08 00:09 | 25.94765 | -81.11567 | 9318 ft | 304 kts | 116° |
| 2026-05-08 00:09 | 25.93880 | -81.09545 | 9382 ft | 283 kts | 116° |
| 2026-05-08 00:10 | 25.93011 | -81.07564 | 9449 ft | 289 kts | 116° |
| 2026-05-08 00:10 | 25.92133 | -81.05562 | 9417 ft | 286 kts | 116° |
| 2026-05-08 00:10 | 25.91269 | -81.03591 | 9416 ft | 282 kts | 116° |
| 2026-05-08 00:10 | 25.90475 | -81.01608 | 9312 ft | 280 kts | 113° |
| 2026-05-08 00:11 | 25.89728 | -80.99627 | 9064 ft | 277 kts | 113° |
| 2026-05-08 00:11 | 25.88992 | -80.97673 | 8995 ft | 273 kts | 113° |
| 2026-05-08 00:11 | 25.88258 | -80.95738 | 8675 ft | 273 kts | 113° |
| 2026-05-08 00:11 | 25.87508 | -80.93776 | 8304 ft | 278 kts | 113° |
| 2026-05-08 00:12 | 25.86749 | -80.91792 | 8091 ft | 278 kts | 113° |
| 2026-05-08 00:12 | 25.85997 | -80.89831 | 8030 ft | 275 kts | 113° |
| 2026-05-08 00:12 | 25.85255 | -80.87898 | 7998 ft | 277 kts | 113° |
| 2026-05-08 00:12 | 25.84496 | -80.85925 | 7988 ft | 279 kts | 113° |
| 2026-05-08 00:13 | 25.83729 | -80.83929 | 7768 ft | 284 kts | 113° |
| 2026-05-08 00:13 | 25.82796 | -80.82040 | 7462 ft | 279 kts | 131° |
| 2026-05-08 00:13 | 25.81262 | -80.80801 | 7289 ft | 269 kts | 160° |
| 2026-05-08 00:13 | 25.79513 | -80.80310 | 7125 ft | 254 kts | 171° |
| 2026-05-08 00:14 | 25.77767 | -80.79982 | 6770 ft | 253 kts | 165° |
| 2026-05-08 00:14 | 25.76230 | -80.79060 | 6370 ft | 255 kts | 135° |
| 2026-05-08 00:14 | 25.75314 | -80.77398 | 5982 ft | 253 kts | 102° |
| 2026-05-08 00:14 | 25.75118 | -80.75533 | 5969 ft | 238 kts | 89° |
| 2026-05-08 00:15 | 25.75199 | -80.73710 | 5981 ft | 236 kts | 85° |
| 2026-05-08 00:15 | 25.75330 | -80.71867 | 5995 ft | 251 kts | 82° |
| 2026-05-08 00:15 | 25.75826 | -80.69938 | 5965 ft | 267 kts | 65° |
| 2026-05-08 00:15 | 25.76637 | -80.68051 | 5507 ft | 269 kts | 65° |
| 2026-05-08 00:16 | 25.77153 | -80.66074 | 5179 ft | 265 kts | 82° |
| 2026-05-08 00:16 | 25.77299 | -80.64085 | 5096 ft | 257 kts | 87° |
| 2026-05-08 00:16 | 25.77363 | -80.62089 | 5091 ft | 260 kts | 87° |
| 2026-05-08 00:16 | 25.77432 | -80.60105 | 4983 ft | 253 kts | 87° |
| 2026-05-08 00:17 | 25.77506 | -80.58193 | 4599 ft | 244 kts | 87° |
| 2026-05-08 00:17 | 25.77580 | -80.56390 | 4265 ft | 225 kts | 86° |
| 2026-05-08 00:17 | 25.77649 | -80.54723 | 4007 ft | 208 kts | 86° |
| 2026-05-08 00:17 | 25.77715 | -80.53133 | 3709 ft | 205 kts | 86° |
| 2026-05-08 00:18 | 25.77783 | -80.51525 | 3477 ft | 210 kts | 86° |
| 2026-05-08 00:18 | 25.77851 | -80.49905 | 3208 ft | 214 kts | 87° |
| 2026-05-08 00:18 | 25.77919 | -80.48266 | 2924 ft | 210 kts | 88° |
| 2026-05-08 00:18 | 25.77984 | -80.46668 | 2667 ft | 204 kts | 88° |
| 2026-05-08 00:19 | 25.78027 | -80.45634 | 2504 ft | 203 kts | 89° |
| 2026-05-08 00:19 | 25.78091 | -80.44083 | 2239 ft | 199 kts | 89° |
| 2026-05-08 00:19 | 25.78153 | -80.42609 | 1967 ft | 181 kts | 89° |
| 2026-05-08 00:19 | 25.78208 | -80.41314 | 1737 ft | 157 kts | 91° |
| 2026-05-08 00:20 | 25.78254 | -80.40179 | 1575 ft | 142 kts | 89° |
| 2026-05-08 00:20 | 25.78299 | -80.39075 | 1409 ft | 143 kts | 91° |
| 2026-05-08 00:20 | 25.78344 | -80.38002 | 1226 ft | 140 kts | 92° |
| 2026-05-08 00:20 | 25.78388 | -80.36915 | 1029 ft | 138 kts | 90° |
| 2026-05-08 00:21 | 25.78431 | -80.35901 | 868 ft | 128 kts | 93° |
| 2026-05-08 00:21 | 25.78471 | -80.34888 | 719 ft | 136 kts | 89° |
| 2026-05-08 00:21 | 25.78518 | -80.33858 | 525 ft | 139 kts | 92° |
| 2026-05-08 00:21 | 25.78574 | -80.32780 | 369 ft | 141 kts | 91° |
| 2026-05-08 00:22 | 25.78612 | -80.31779 | 177 ft | 122 kts | 93° |
| 2026-05-08 00:22 | 25.78645 | -80.30860 | 40 ft | 119 kts | 91° |
| 2026-05-08 00:22 | 25.78666 | -80.30020 | 20 ft | 91 kts | 86° |
| 2026-05-08 00:22 | 25.78696 | -80.29523 | 20 ft | 46 kts | 86° |
| 2026-05-08 00:23 | 25.78758 | -80.29225 | 26 ft | 32 kts | 57° |
| 2026-05-08 00:23 | 25.78821 | -80.29087 | 22 ft | 20 kts | 86° |
| 2026-05-08 00:23 | 25.78845 | -80.28938 | 22 ft | 20 kts | 73° |
| 2026-05-08 00:23 | 25.78870 | -80.28803 | 21 ft | 17 kts | 87° |
| 2026-05-08 00:24 | 25.78874 | -80.28674 | 19 ft | 14 kts | 86° |
| 2026-05-08 00:24 | 25.78901 | -80.28608 | 24 ft | 9 kts | 44° |
| 2026-05-08 00:24 | 25.78956 | -80.28561 | 25 ft | 12 kts | 35° |
| 2026-05-08 00:24 | 25.79026 | -80.28507 | 24 ft | 12 kts | 35° |
| 2026-05-08 00:25 | 25.79098 | -80.28454 | 24 ft | 12 kts | 32° |
| 2026-05-08 00:25 | 25.79174 | -80.28409 | 27 ft | 12 kts | 14° |
| 2026-05-08 00:25 | 25.79242 | -80.28453 | 23 ft | 12 kts | 296° |
| 2026-05-08 00:25 | 25.79288 | -80.28548 | 24 ft | 17 kts | 298° |
| 2026-05-08 00:26 | 25.79353 | -80.28675 | 19 ft | 19 kts | 301° |
| 2026-05-08 00:26 | 25.79409 | -80.28775 | 19 ft | 12 kts | 307° |
| 2026-05-08 00:26 | 25.79485 | -80.28802 | 24 ft | 12 kts | 356° |
| 2026-05-08 00:26 | 25.79568 | -80.28808 | 28 ft | 12 kts | 357° |
| 2026-05-08 00:27 | 25.79651 | -80.28811 | 27 ft | 12 kts | 358° |
| 2026-05-08 00:27 | 25.79734 | -80.28814 | 30 ft | 12 kts | 358° |
| 2026-05-08 00:27 | 25.79846 | -80.28820 | 27 ft | 17 kts | 356° |
| 2026-05-08 00:27 | 25.79923 | -80.28810 | 26 ft | 9 kts | 40° |
| 2026-05-08 00:28 | 25.79937 | -80.28737 | 26 ft | 13 kts | 85° |
| 2026-05-08 00:28 | 25.79945 | -80.28611 | 25 ft | 19 kts | 87° |
| 2026-05-08 00:28 | 25.79948 | -80.28454 | 21 ft | 20 kts | 89° |
| 2026-05-08 00:28 | 25.79949 | -80.28308 | 22 ft | 19 kts | 85° |
| 2026-05-08 00:29 | 25.79960 | -80.28170 | 18 ft | 13 kts | 94° |
| 2026-05-08 00:29 | 25.79924 | -80.28116 | 18 ft | 8 kts | 134° |
| 2026-05-08 00:29 | 25.79903 | -80.28073 | 18 ft | 6 kts | 101° |
| 2026-05-08 00:29 | 25.79902 | -80.28036 | 18 ft | 4 kts | 95° |
| 2026-05-08 00:30 | 25.79879 | -80.28025 | 20 ft | 4 kts | 183° |
| 2026-05-08 00:30 | 25.79867 | -80.28035 | 19 ft | 2 kts | 240° |
| 2026-05-08 00:30 | 25.79861 | -80.28047 | 19 ft | 2 kts | 241° |
| 2026-05-08 00:30 | 25.79855 | -80.28057 | 19 ft | 2 kts | 235° |
| 2026-05-08 00:31 | 25.79846 | -80.28066 | 19 ft | 2 kts | 223° |
| 2026-05-08 00:31 | 25.79841 | -80.28072 | 20 ft | 1 kts | 224° |
| 2026-05-08 00:31 | 25.79837 | -80.28075 | 20 ft | 1 kts | 224° |
| 2026-05-08 00:31 | 25.79835 | -80.28077 | 19 ft | 1 kts | 224° |
| 2026-05-08 00:32 | 25.79832 | -80.28081 | 19 ft | 1 kts | 224° |
| 2026-05-08 00:32 | 25.79830 | -80.28083 | 19 ft | 0 kts | 224° |